sensor_id;sensor_type;location;lat;lon;timestamp;pressure;altitude;pressure_sealevel;temperature;humidity
13029;BME280;6581;42.662;23.402;2022-11-14T00:01:07;96468.47;;;4.49;100.00
13029;BME280;6581;42.662;23.402;2022-11-14T00:03:54;96453.44;;;4.36;100.00
13029;BME280;6581;42.662;23.402;2022-11-14T00:06:41;96469.00;;;4.32;100.00
13029;BME280;6581;42.662;23.402;2022-11-14T00:09:28;96463.94;;;4.36;100.00
13029;BME280;6581;42.662;23.402;2022-11-14T00:12:14;96457.50;;;4.15;100.00
13029;BME280;6581;42.662;23.402;2022-11-14T00:15:00;96462.56;;;4.25;100.00
13029;BME280;6581;42.662;23.402;2022-11-14T00:17:46;96465.88;;;4.17;100.00
13029;BME280;6581;42.662;23.402;2022-11-14T00:20:32;96466.47;;;4.27;100.00
13029;BME280;6581;42.662;23.402;2022-11-14T00:23:20;96449.53;;;4.20;100.00
13029;BME280;6581;42.662;23.402;2022-11-14T00:26:06;96469.00;;;4.32;100.00
13029;BME280;6581;42.662;23.402;2022-11-14T00:28:52;96464.63;;;4.28;100.00
13029;BME280;6581;42.662;23.402;2022-11-14T00:31:38;96467.31;;;4.23;100.00
13029;BME280;6581;42.662;23.402;2022-11-14T00:34:23;96468.09;;;4.23;100.00
13029;BME280;6581;42.662;23.402;2022-11-14T00:37:09;96472.66;;;4.18;100.00
13029;BME280;6581;42.662;23.402;2022-11-14T00:39:56;96466.72;;;4.12;100.00
13029;BME280;6581;42.662;23.402;2022-11-14T00:42:42;96468.88;;;4.24;100.00
13029;BME280;6581;42.662;23.402;2022-11-14T00:45:27;96470.06;;;4.31;100.00
13029;BME280;6581;42.662;23.402;2022-11-14T00:48:13;96459.13;;;4.43;100.00
13029;BME280;6581;42.662;23.402;2022-11-14T00:50:59;96463.38;;;4.39;100.00
13029;BME280;6581;42.662;23.402;2022-11-14T00:53:45;96463.84;;;4.41;100.00
13029;BME280;6581;42.662;23.402;2022-11-14T00:56:32;96460.09;;;4.61;100.00
13029;BME280;6581;42.662;23.402;2022-11-14T00:59:17;96465.97;;;4.71;100.00
13029;BME280;6581;42.662;23.402;2022-11-14T01:02:03;96461.47;;;4.58;100.00
13029;BME280;6581;42.662;23.402;2022-11-14T01:04:48;96462.34;;;4.54;100.00
13029;BME280;6581;42.662;23.402;2022-11-14T01:07:34;96461.25;;;4.55;100.00
13029;BME280;6581;42.662;23.402;2022-11-14T01:10:26;96459.59;;;4.59;100.00
13029;BME280;6581;42.662;23.402;2022-11-14T01:13:15;96453.19;;;4.51;100.00
13029;BME280;6581;42.662;23.402;2022-11-14T01:16:00;96453.19;;;4.51;100.00
13029;BME280;6581;42.662;23.402;2022-11-14T01:18:46;96453.38;;;4.55;100.00
13029;BME280;6581;42.662;23.402;2022-11-14T01:21:32;96456.97;;;4.59;100.00
13029;BME280;6581;42.662;23.402;2022-11-14T01:24:18;96441.81;;;4.56;100.00
13029;BME280;6581;42.662;23.402;2022-11-14T01:27:04;96446.72;;;4.62;100.00
13029;BME280;6581;42.662;23.402;2022-11-14T01:29:51;96436.78;;;4.59;100.00
13029;BME280;6581;42.662;23.402;2022-11-14T01:32:36;96427.84;;;4.60;100.00
13029;BME280;6581;42.662;23.402;2022-11-14T01:35:22;96437.19;;;4.66;100.00
13029;BME280;6581;42.662;23.402;2022-11-14T01:38:12;96436.00;;;4.59;100.00
13029;BME280;6581;42.662;23.402;2022-11-14T01:40:59;96429.59;;;4.65;100.00
13029;BME280;6581;42.662;23.402;2022-11-14T01:43:45;96430.00;;;4.58;100.00
13029;BME280;6581;42.662;23.402;2022-11-14T01:46:35;96427.91;;;4.41;100.00
13029;BME280;6581;42.662;23.402;2022-11-14T01:49:23;96426.66;;;4.39;100.00
13029;BME280;6581;42.662;23.402;2022-11-14T01:52:14;96425.69;;;4.49;100.00
13029;BME280;6581;42.662;23.402;2022-11-14T01:55:02;96417.31;;;4.46;100.00
13029;BME280;6581;42.662;23.402;2022-11-14T01:57:49;96423.00;;;4.54;100.00
13029;BME280;6581;42.662;23.402;2022-11-14T02:00:36;96415.56;;;4.42;100.00
13029;BME280;6581;42.662;23.402;2022-11-14T02:03:23;96419.16;;;4.32;100.00
13029;BME280;6581;42.662;23.402;2022-11-14T02:06:12;96413.22;;;4.27;100.00
13029;BME280;6581;42.662;23.402;2022-11-14T02:08:59;96411.47;;;4.22;100.00
13029;BME280;6581;42.662;23.402;2022-11-14T02:11:47;96404.06;;;4.11;100.00
13029;BME280;6581;42.662;23.402;2022-11-14T02:14:34;96414.34;;;4.07;100.00
13029;BME280;6581;42.662;23.402;2022-11-14T02:17:22;96407.28;;;4.08;100.00
13029;BME280;6581;42.662;23.402;2022-11-14T02:20:21;96406.38;;;3.98;100.00
13029;BME280;6581;42.662;23.402;2022-11-14T02:23:07;96404.44;;;4.04;100.00
13029;BME280;6581;42.662;23.402;2022-11-14T02:25:53;96407.25;;;3.94;100.00
13029;BME280;6581;42.662;23.402;2022-11-14T02:28:39;96411.22;;;3.73;100.00
13029;BME280;6581;42.662;23.402;2022-11-14T02:31:24;96411.53;;;3.71;100.00
13029;BME280;6581;42.662;23.402;2022-11-14T02:34:10;96416.69;;;3.76;100.00
13029;BME280;6581;42.662;23.402;2022-11-14T02:36:57;96406.84;;;3.68;100.00
13029;BME280;6581;42.662;23.402;2022-11-14T02:39:43;96411.09;;;3.64;100.00
13029;BME280;6581;42.662;23.402;2022-11-14T02:42:29;96406.38;;;3.47;100.00
13029;BME280;6581;42.662;23.402;2022-11-14T02:45:14;96409.78;;;3.48;100.00
13029;BME280;6581;42.662;23.402;2022-11-14T02:48:00;96409.06;;;3.24;100.00
13029;BME280;6581;42.662;23.402;2022-11-14T02:50:47;96414.59;;;3.22;100.00
13029;BME280;6581;42.662;23.402;2022-11-14T02:53:34;96406.97;;;3.07;100.00
13029;BME280;6581;42.662;23.402;2022-11-14T02:56:20;96407.03;;;2.78;100.00
13029;BME280;6581;42.662;23.402;2022-11-14T02:59:05;96410.44;;;2.79;100.00
13029;BME280;6581;42.662;23.402;2022-11-14T03:01:51;96402.44;;;2.70;100.00
13029;BME280;6581;42.662;23.402;2022-11-14T03:04:37;96404.22;;;2.51;100.00
13029;BME280;6581;42.662;23.402;2022-11-14T03:07:22;96403.59;;;2.59;100.00
13029;BME280;6581;42.662;23.402;2022-11-14T03:10:10;96400.81;;;2.50;100.00
13029;BME280;6581;42.662;23.402;2022-11-14T03:12:57;96406.78;;;2.56;100.00
13029;BME280;6581;42.662;23.402;2022-11-14T03:15:42;96410.56;;;2.45;100.00
13029;BME280;6581;42.662;23.402;2022-11-14T03:18:28;96405.00;;;2.51;100.00
13029;BME280;6581;42.662;23.402;2022-11-14T03:21:16;96397.38;;;2.55;100.00
13029;BME280;6581;42.662;23.402;2022-11-14T03:24:02;96401.59;;;2.51;100.00
13029;BME280;6581;42.662;23.402;2022-11-14T03:26:49;96405.22;;;2.55;100.00
13029;BME280;6581;42.662;23.402;2022-11-14T03:29:35;96411.28;;;2.50;100.00
13029;BME280;6581;42.662;23.402;2022-11-14T03:32:21;96402.88;;;2.53;100.00
13029;BME280;6581;42.662;23.402;2022-11-14T03:35:07;96409.25;;;2.47;100.00
13029;BME280;6581;42.662;23.402;2022-11-14T03:37:53;96408.16;;;2.48;100.00
13029;BME280;6581;42.662;23.402;2022-11-14T03:40:39;96408.09;;;2.53;100.00
13029;BME280;6581;42.662;23.402;2022-11-14T03:43:30;96400.25;;;2.53;100.00
13029;BME280;6581;42.662;23.402;2022-11-14T03:46:16;96405.13;;;2.65;100.00
13029;BME280;6581;42.662;23.402;2022-11-14T03:49:02;96395.97;;;2.62;100.00
13029;BME280;6581;42.662;23.402;2022-11-14T03:51:48;96400.47;;;2.57;100.00
13029;BME280;6581;42.662;23.402;2022-11-14T03:54:35;96395.75;;;2.59;100.00
13029;BME280;6581;42.662;23.402;2022-11-14T03:57:20;96403.28;;;2.65;100.00
13029;BME280;6581;42.662;23.402;2022-11-14T04:00:09;96402.72;;;2.68;100.00
13029;BME280;6581;42.662;23.402;2022-11-14T04:02:54;96398.69;;;2.76;100.00
13029;BME280;6581;42.662;23.402;2022-11-14T04:05:43;96394.91;;;2.87;100.00
13029;BME280;6581;42.662;23.402;2022-11-14T04:08:29;96396.84;;;2.77;100.00
13029;BME280;6581;42.662;23.402;2022-11-14T04:11:15;96387.69;;;2.79;100.00
13029;BME280;6581;42.662;23.402;2022-11-14T04:14:01;96393.50;;;2.71;100.00
13029;BME280;6581;42.662;23.402;2022-11-14T04:16:48;96391.91;;;2.94;100.00
13029;BME280;6581;42.662;23.402;2022-11-14T04:19:34;96396.22;;;2.85;100.00
13029;BME280;6581;42.662;23.402;2022-11-14T04:22:20;96389.16;;;2.85;100.00
13029;BME280;6581;42.662;23.402;2022-11-14T04:25:09;96397.72;;;2.91;100.00
13029;BME280;6581;42.662;23.402;2022-11-14T04:27:54;96393.22;;;2.96;100.00
13029;BME280;6581;42.662;23.402;2022-11-14T04:30:40;96395.31;;;2.94;100.00
13029;BME280;6581;42.662;23.402;2022-11-14T04:33:29;96380.91;;;2.97;100.00
13029;BME280;6581;42.662;23.402;2022-11-14T04:36:15;96385.75;;;2.85;100.00
13029;BME280;6581;42.662;23.402;2022-11-14T04:39:00;96384.69;;;2.86;100.00
13029;BME280;6581;42.662;23.402;2022-11-14T04:41:46;96381.44;;;2.94;100.00
13029;BME280;6581;42.662;23.402;2022-11-14T04:44:32;96379.75;;;3.03;100.00
13029;BME280;6581;42.662;23.402;2022-11-14T04:47:17;96380.28;;;3.05;100.00
13029;BME280;6581;42.662;23.402;2022-11-14T04:50:05;96376.38;;;3.21;100.00
13029;BME280;6581;42.662;23.402;2022-11-14T04:52:51;96386.63;;;3.18;100.00
13029;BME280;6581;42.662;23.402;2022-11-14T04:55:37;96383.88;;;3.28;100.00
13029;BME280;6581;42.662;23.402;2022-11-14T04:58:23;96383.47;;;3.21;100.00
13029;BME280;6581;42.662;23.402;2022-11-14T05:01:10;96381.25;;;3.09;100.00
13029;BME280;6581;42.662;23.402;2022-11-14T05:04:04;96381.31;;;3.04;100.00
13029;BME280;6581;42.662;23.402;2022-11-14T05:06:51;96380.53;;;3.03;100.00
13029;BME280;6581;42.662;23.402;2022-11-14T05:09:37;96384.66;;;3.09;100.00
13029;BME280;6581;42.662;23.402;2022-11-14T05:12:22;96386.06;;;3.02;100.00
13029;BME280;6581;42.662;23.402;2022-11-14T05:15:09;96391.13;;;2.93;100.00
13029;BME280;6581;42.662;23.402;2022-11-14T05:18:01;96392.22;;;2.92;100.00
13029;BME280;6581;42.662;23.402;2022-11-14T05:20:47;96393.00;;;2.93;100.00
13029;BME280;6581;42.662;23.402;2022-11-14T05:23:34;96392.84;;;3.03;100.00
13029;BME280;6581;42.662;23.402;2022-11-14T05:26:20;96400.22;;;3.01;100.00
13029;BME280;6581;42.662;23.402;2022-11-14T05:29:05;96400.91;;;2.88;100.00
13029;BME280;6581;42.662;23.402;2022-11-14T05:31:50;96402.38;;;2.94;100.00
13029;BME280;6581;42.662;23.402;2022-11-14T05:34:37;96399.69;;;2.80;100.00
13029;BME280;6581;42.662;23.402;2022-11-14T05:37:22;96404.84;;;2.85;100.00
13029;BME280;6581;42.662;23.402;2022-11-14T05:40:10;96399.34;;;2.87;100.00
13029;BME280;6581;42.662;23.402;2022-11-14T05:43:00;96394.53;;;2.94;100.00
13029;BME280;6581;42.662;23.402;2022-11-14T05:45:45;96399.94;;;3.02;100.00
13029;BME280;6581;42.662;23.402;2022-11-14T05:48:57;96408.56;;;3.03;100.00
13029;BME280;6581;42.662;23.402;2022-11-14T05:51:42;96411.47;;;3.01;100.00
13029;BME280;6581;42.662;23.402;2022-11-14T05:54:28;96411.25;;;3.17;100.00
13029;BME280;6581;42.662;23.402;2022-11-14T05:57:14;96409.06;;;3.05;100.00
13029;BME280;6581;42.662;23.402;2022-11-14T06:00:00;96408.44;;;3.13;100.00
13029;BME280;6581;42.662;23.402;2022-11-14T06:02:46;96402.78;;;3.25;100.00
13029;BME280;6581;42.662;23.402;2022-11-14T06:05:47;96405.88;;;3.45;100.00
13029;BME280;6581;42.662;23.402;2022-11-14T06:08:33;96411.31;;;3.49;100.00
13029;BME280;6581;42.662;23.402;2022-11-14T06:11:20;96413.81;;;3.59;100.00
13029;BME280;6581;42.662;23.402;2022-11-14T06:14:07;96422.03;;;3.52;100.00
13029;BME280;6581;42.662;23.402;2022-11-14T06:16:52;96421.88;;;3.63;100.00
13029;BME280;6581;42.662;23.402;2022-11-14T06:19:38;96429.78;;;3.57;100.00
13029;BME280;6581;42.662;23.402;2022-11-14T06:22:24;96425.47;;;3.67;100.00
13029;BME280;6581;42.662;23.402;2022-11-14T06:25:09;96430.63;;;3.72;100.00
13029;BME280;6581;42.662;23.402;2022-11-14T06:28:02;96421.63;;;3.78;100.00
13029;BME280;6581;42.662;23.402;2022-11-14T06:30:49;96419.94;;;3.68;100.00
13029;BME280;6581;42.662;23.402;2022-11-14T06:33:35;96414.44;;;3.70;100.00
13029;BME280;6581;42.662;23.402;2022-11-14T06:36:21;96425.97;;;3.69;100.00
13029;BME280;6581;42.662;23.402;2022-11-14T06:39:07;96415.81;;;3.81;100.00
13029;BME280;6581;42.662;23.402;2022-11-14T06:41:53;96414.56;;;3.78;100.00
13029;BME280;6581;42.662;23.402;2022-11-14T06:44:38;96418.13;;;3.69;100.00
13029;BME280;6581;42.662;23.402;2022-11-14T06:47:25;96412.72;;;3.79;100.00
13029;BME280;6581;42.662;23.402;2022-11-14T06:50:11;96413.97;;;3.81;100.00
13029;BME280;6581;42.662;23.402;2022-11-14T06:52:57;96411.13;;;3.96;100.00
13029;BME280;6581;42.662;23.402;2022-11-14T06:55:42;96414.16;;;4.17;100.00
13029;BME280;6581;42.662;23.402;2022-11-14T06:58:30;96411.00;;;4.34;100.00
13029;BME280;6581;42.662;23.402;2022-11-14T07:01:17;96408.19;;;4.30;100.00
13029;BME280;6581;42.662;23.402;2022-11-14T07:04:05;96406.72;;;4.38;100.00
13029;BME280;6581;42.662;23.402;2022-11-14T07:06:51;96399.47;;;4.49;100.00
13029;BME280;6581;42.662;23.402;2022-11-14T07:09:36;96401.78;;;4.64;100.00
13029;BME280;6581;42.662;23.402;2022-11-14T07:12:22;96395.88;;;4.58;100.00
13029;BME280;6581;42.662;23.402;2022-11-14T07:15:08;96396.16;;;4.57;100.00
13029;BME280;6581;42.662;23.402;2022-11-14T07:17:53;96395.75;;;4.50;100.00
13029;BME280;6581;42.662;23.402;2022-11-14T07:20:40;96403.94;;;4.62;100.00
13029;BME280;6581;42.662;23.402;2022-11-14T07:23:27;96394.88;;;4.81;100.00
13029;BME280;6581;42.662;23.402;2022-11-14T07:26:38;96409.53;;;4.96;100.00
13029;BME280;6581;42.662;23.402;2022-11-14T07:29:23;96402.34;;;5.02;100.00
13029;BME280;6581;42.662;23.402;2022-11-14T07:32:09;96398.34;;;4.90;100.00
13029;BME280;6581;42.662;23.402;2022-11-14T07:34:54;96404.25;;;5.10;100.00
13029;BME280;6581;42.662;23.402;2022-11-14T07:37:41;96408.09;;;4.90;100.00
13029;BME280;6581;42.662;23.402;2022-11-14T07:40:27;96400.09;;;4.95;100.00
13029;BME280;6581;42.662;23.402;2022-11-14T07:43:13;96388.44;;;5.01;100.00
13029;BME280;6581;42.662;23.402;2022-11-14T07:45:59;96389.00;;;5.12;100.00
13029;BME280;6581;42.662;23.402;2022-11-14T07:48:44;96396.38;;;5.10;100.00
13029;BME280;6581;42.662;23.402;2022-11-14T07:51:30;96395.34;;;4.97;100.00
13029;BME280;6581;42.662;23.402;2022-11-14T07:54:17;96389.47;;;5.14;100.00
13029;BME280;6581;42.662;23.402;2022-11-14T07:57:03;96397.13;;;5.24;100.00
13029;BME280;6581;42.662;23.402;2022-11-14T07:59:48;96394.97;;;5.40;100.00
13029;BME280;6581;42.662;23.402;2022-11-14T08:02:34;96390.88;;;5.33;100.00
13029;BME280;6581;42.662;23.402;2022-11-14T08:05:19;96398.00;;;5.33;100.00
13029;BME280;6581;42.662;23.402;2022-11-14T08:08:05;96389.09;;;5.43;100.00
13029;BME280;6581;42.662;23.402;2022-11-14T08:10:54;96395.25;;;5.38;100.00
13029;BME280;6581;42.662;23.402;2022-11-14T08:13:40;96388.50;;;5.46;100.00
13029;BME280;6581;42.662;23.402;2022-11-14T08:16:26;96393.53;;;5.56;100.00
13029;BME280;6581;42.662;23.402;2022-11-14T08:19:11;96386.09;;;5.71;100.00
13029;BME280;6581;42.662;23.402;2022-11-14T08:21:59;96384.13;;;5.77;100.00
13029;BME280;6581;42.662;23.402;2022-11-14T08:24:45;96388.34;;;5.87;100.00
13029;BME280;6581;42.662;23.402;2022-11-14T08:27:32;96384.47;;;5.62;100.00
13029;BME280;6581;42.662;23.402;2022-11-14T08:30:18;96385.81;;;5.59;100.00
13029;BME280;6581;42.662;23.402;2022-11-14T08:33:04;96384.78;;;5.24;100.00
13029;BME280;6581;42.662;23.402;2022-11-14T08:35:50;96374.88;;;5.21;100.00
13029;BME280;6581;42.662;23.402;2022-11-14T08:38:37;96381.59;;;5.14;100.00
13029;BME280;6581;42.662;23.402;2022-11-14T08:41:23;96384.50;;;5.26;100.00
13029;BME280;6581;42.662;23.402;2022-11-14T08:44:10;96374.28;;;5.24;100.00
13029;BME280;6581;42.662;23.402;2022-11-14T08:46:55;96385.34;;;5.35;100.00
13029;BME280;6581;42.662;23.402;2022-11-14T08:49:43;96377.84;;;5.28;100.00
13029;BME280;6581;42.662;23.402;2022-11-14T08:52:29;96374.88;;;5.21;100.00
13029;BME280;6581;42.662;23.402;2022-11-14T08:55:14;96370.41;;;5.22;100.00
13029;BME280;6581;42.662;23.402;2022-11-14T08:58:00;96362.88;;;5.29;100.00
13029;BME280;6581;42.662;23.402;2022-11-14T09:00:46;96361.22;;;5.55;100.00
13029;BME280;6581;42.662;23.402;2022-11-14T09:03:33;96350.19;;;5.67;100.00
13029;BME280;6581;42.662;23.402;2022-11-14T09:06:18;96349.75;;;5.51;100.00
13029;BME280;6581;42.662;23.402;2022-11-14T09:09:04;96348.50;;;5.49;100.00
13029;BME280;6581;42.662;23.402;2022-11-14T09:11:50;96346.88;;;5.61;100.00
13029;BME280;6581;42.662;23.402;2022-11-14T09:14:35;96344.81;;;5.72;100.00
13029;BME280;6581;42.662;23.402;2022-11-14T09:17:22;96341.31;;;5.85;100.00
13029;BME280;6581;42.662;23.402;2022-11-14T09:20:08;96331.69;;;6.03;100.00
13029;BME280;6581;42.662;23.402;2022-11-14T09:22:53;96333.81;;;6.23;100.00
13029;BME280;6581;42.662;23.402;2022-11-14T09:25:41;96332.78;;;6.41;100.00
13029;BME280;6581;42.662;23.402;2022-11-14T09:28:27;96332.88;;;6.28;100.00
13029;BME280;6581;42.662;23.402;2022-11-14T09:31:13;96325.25;;;6.17;100.00
13029;BME280;6581;42.662;23.402;2022-11-14T09:34:00;96318.44;;;6.16;100.00
13029;BME280;6581;42.662;23.402;2022-11-14T09:36:46;96316.19;;;6.32;100.00
13029;BME280;6581;42.662;23.402;2022-11-14T09:39:31;96322.41;;;6.45;100.00
13029;BME280;6581;42.662;23.402;2022-11-14T09:42:30;96321.63;;;6.44;100.00
13029;BME280;6581;42.662;23.402;2022-11-14T09:45:23;96322.69;;;6.35;100.00
13029;BME280;6581;42.662;23.402;2022-11-14T09:48:12;96317.81;;;6.59;100.00
13029;BME280;6581;42.662;23.402;2022-11-14T09:51:06;96314.69;;;6.48;100.00
13029;BME280;6581;42.662;23.402;2022-11-14T09:54:00;96316.56;;;6.56;100.00
13029;BME280;6581;42.662;23.402;2022-11-14T09:56:49;96304.97;;;6.75;100.00
13029;BME280;6581;42.662;23.402;2022-11-14T09:59:34;96302.53;;;7.04;100.00
13029;BME280;6581;42.662;23.402;2022-11-14T10:02:32;96303.94;;;7.19;100.00
13029;BME280;6581;42.662;23.402;2022-11-14T10:05:54;96293.56;;;7.13;100.00
13029;BME280;6581;42.662;23.402;2022-11-14T10:08:53;96294.16;;;7.02;100.00
13029;BME280;6581;42.662;23.402;2022-11-14T10:11:48;96287.94;;;7.06;100.00
13029;BME280;6581;42.662;23.402;2022-11-14T10:14:49;96285.50;;;7.10;100.00
13029;BME280;6581;42.662;23.402;2022-11-14T10:17:50;96285.78;;;7.17;100.00
13029;BME280;6581;42.662;23.402;2022-11-14T10:20:44;96271.81;;;7.25;100.00
13029;BME280;6581;42.662;23.402;2022-11-14T10:23:40;96269.66;;;7.36;100.00
13029;BME280;6581;42.662;23.402;2022-11-14T10:26:32;96260.50;;;7.42;100.00
13029;BME280;6581;42.662;23.402;2022-11-14T10:29:39;96252.66;;;7.71;100.00
13029;BME280;6581;42.662;23.402;2022-11-14T10:32:39;96258.56;;;7.68;100.00
13029;BME280;6581;42.662;23.402;2022-11-14T10:35:34;96240.25;;;7.72;100.00
13029;BME280;6581;42.662;23.402;2022-11-14T10:38:27;96240.94;;;7.43;100.00
13029;BME280;6581;42.662;23.402;2022-11-14T10:41:16;96235.19;;;7.49;100.00
13029;BME280;6581;42.662;23.402;2022-11-14T10:44:08;96236.47;;;7.35;100.00
13029;BME280;6581;42.662;23.402;2022-11-14T10:47:00;96227.00;;;7.34;100.00
13029;BME280;6581;42.662;23.402;2022-11-14T10:49:48;96225.47;;;7.24;100.00
13029;BME280;6581;42.662;23.402;2022-11-14T10:52:40;96223.34;;;7.09;100.00
13029;BME280;6581;42.662;23.402;2022-11-14T10:55:27;96210.44;;;7.16;100.00
13029;BME280;6581;42.662;23.402;2022-11-14T10:58:14;96208.41;;;7.30;100.00
13029;BME280;6581;42.662;23.402;2022-11-14T11:01:35;96200.66;;;7.42;100.00
13029;BME280;6581;42.662;23.402;2022-11-14T11:04:25;96201.88;;;7.45;100.00
13029;BME280;6581;42.662;23.402;2022-11-14T11:07:22;96200.91;;;7.58;100.00
13029;BME280;6581;42.662;23.402;2022-11-14T11:10:26;96204.47;;;7.53;100.00
13029;BME280;6581;42.662;23.402;2022-11-14T11:13:32;96199.13;;;7.71;100.00
13029;BME280;6581;42.662;23.402;2022-11-14T11:16:20;96197.63;;;7.70;100.00
13029;BME280;6581;42.662;23.402;2022-11-14T11:19:21;96193.69;;;7.76;100.00
13029;BME280;6581;42.662;23.402;2022-11-14T11:22:30;96195.50;;;7.92;100.00
13029;BME280;6581;42.662;23.402;2022-11-14T11:25:25;96188.03;;;7.94;100.00
13029;BME280;6581;42.662;23.402;2022-11-14T11:28:12;96184.38;;;8.08;100.00
13029;BME280;6581;42.662;23.402;2022-11-14T11:30:59;96190.00;;;8.06;100.00
13029;BME280;6581;42.662;23.402;2022-11-14T11:33:46;96177.06;;;8.13;100.00
13029;BME280;6581;42.662;23.402;2022-11-14T11:36:37;96175.50;;;8.12;100.00
13029;BME280;6581;42.662;23.402;2022-11-14T11:39:27;96169.75;;;8.19;100.00
13029;BME280;6581;42.662;23.402;2022-11-14T11:42:18;96172.47;;;8.31;100.00
13029;BME280;6581;42.662;23.402;2022-11-14T11:45:10;96176.00;;;8.35;100.00
13029;BME280;6581;42.662;23.402;2022-11-14T11:48:09;96170.56;;;8.40;100.00
13029;BME280;6581;42.662;23.402;2022-11-14T11:51:00;96168.31;;;8.51;100.00
13029;BME280;6581;42.662;23.402;2022-11-14T11:53:54;96166.63;;;8.67;100.00
13029;BME280;6581;42.662;23.402;2022-11-14T11:56:44;96151.97;;;8.90;100.00
13029;BME280;6581;42.662;23.402;2022-11-14T11:59:34;96156.06;;;9.00;99.99
13029;BME280;6581;42.662;23.402;2022-11-14T12:02:23;96154.22;;;9.00;100.00
13029;BME280;6581;42.662;23.402;2022-11-14T12:05:12;96153.63;;;8.95;100.00
13029;BME280;6581;42.662;23.402;2022-11-14T12:08:01;96148.84;;;9.09;99.31
13029;BME280;6581;42.662;23.402;2022-11-14T12:10:49;96150.19;;;9.15;99.17
13029;BME280;6581;42.662;23.402;2022-11-14T12:13:48;96150.47;;;9.34;99.11
13029;BME280;6581;42.662;23.402;2022-11-14T12:17:04;96143.53;;;9.54;98.68
13029;BME280;6581;42.662;23.402;2022-11-14T12:20:11;96140.69;;;9.83;96.82
13029;BME280;6581;42.662;23.402;2022-11-14T12:23:32;96130.84;;;9.96;94.46
13029;BME280;6581;42.662;23.402;2022-11-14T12:26:44;96124.66;;;10.04;94.59
13029;BME280;6581;42.662;23.402;2022-11-14T12:29:48;96126.00;;;10.10;93.76
13029;BME280;6581;42.662;23.402;2022-11-14T12:32:42;96120.69;;;10.34;92.79
13029;BME280;6581;42.662;23.402;2022-11-14T12:35:31;96123.94;;;10.55;90.91
13029;BME280;6581;42.662;23.402;2022-11-14T12:38:17;96122.59;;;10.61;90.32
13029;BME280;6581;42.662;23.402;2022-11-14T12:41:05;96122.38;;;10.54;90.45
13029;BME280;6581;42.662;23.402;2022-11-14T12:44:18;96114.66;;;10.77;90.03
13029;BME280;6581;42.662;23.402;2022-11-14T12:47:13;96104.22;;;10.96;88.19
13029;BME280;6581;42.662;23.402;2022-11-14T12:53:40;96111.50;;;11.15;87.39
13029;BME280;6581;42.662;23.402;2022-11-14T12:56:50;96110.25;;;11.40;86.79
13029;BME280;6581;42.662;23.402;2022-11-14T12:59:49;96105.38;;;11.42;84.99
13029;BME280;6581;42.662;23.402;2022-11-14T13:06:19;96098.69;;;11.64;84.23
13029;BME280;6581;42.662;23.402;2022-11-14T13:09:30;96097.53;;;11.77;82.68
13029;BME280;6581;42.662;23.402;2022-11-14T13:12:31;96100.75;;;11.86;82.96
13029;BME280;6581;42.662;23.402;2022-11-14T13:15:46;96092.69;;;11.83;82.42
13029;BME280;6581;42.662;23.402;2022-11-14T13:18:53;96088.75;;;11.92;81.35
13029;BME280;6581;42.662;23.402;2022-11-14T13:25:19;96085.69;;;11.75;81.94
13029;BME280;6581;42.662;23.402;2022-11-14T13:28:43;96082.63;;;11.73;82.44
13029;BME280;6581;42.662;23.402;2022-11-14T13:31:45;96074.38;;;11.78;82.14
13029;BME280;6581;42.662;23.402;2022-11-14T13:34:39;96067.03;;;11.87;82.17
13029;BME280;6581;42.662;23.402;2022-11-14T13:37:41;96071.00;;;11.96;81.60
13029;BME280;6581;42.662;23.402;2022-11-14T13:40:33;96067.09;;;11.90;81.37
13029;BME280;6581;42.662;23.402;2022-11-14T13:43:25;96062.69;;;11.98;80.94
13029;BME280;6581;42.662;23.402;2022-11-14T13:46:27;96073.91;;;12.07;80.74
13029;BME280;6581;42.662;23.402;2022-11-14T13:49:38;96070.97;;;12.12;80.60
13029;BME280;6581;42.662;23.402;2022-11-14T13:52:32;96074.22;;;12.06;80.42
13029;BME280;6581;42.662;23.402;2022-11-14T13:55:22;96071.56;;;12.06;81.04
13029;BME280;6581;42.662;23.402;2022-11-14T13:58:28;96067.59;;;11.96;81.25
13029;BME280;6581;42.662;23.402;2022-11-14T14:01:29;96064.78;;;11.89;81.49
13029;BME280;6581;42.662;23.402;2022-11-14T14:04:35;96059.91;;;11.75;81.60
13029;BME280;6581;42.662;23.402;2022-11-14T14:07:30;96063.94;;;11.53;82.89
13029;BME280;6581;42.662;23.402;2022-11-14T14:10:26;96060.84;;;11.51;83.44
13029;BME280;6581;42.662;23.402;2022-11-14T14:13:24;96057.69;;;11.46;83.83
13029;BME280;6581;42.662;23.402;2022-11-14T14:16:19;96050.59;;;11.34;84.20
13029;BME280;6581;42.662;23.402;2022-11-14T14:19:13;96047.53;;;11.32;84.39
13029;BME280;6581;42.662;23.402;2022-11-14T14:22:06;96055.75;;;11.27;85.02
13029;BME280;6581;42.662;23.402;2022-11-14T14:25:00;96053.53;;;11.14;85.78
13029;BME280;6581;42.662;23.402;2022-11-14T14:27:56;96060.09;;;11.04;86.08
13029;BME280;6581;42.662;23.402;2022-11-14T14:30:59;96060.59;;;10.94;86.58
13029;BME280;6581;42.662;23.402;2022-11-14T14:33:47;96052.03;;;10.85;87.60
13029;BME280;6581;42.662;23.402;2022-11-14T14:36:33;96059.72;;;10.74;88.55
13029;BME280;6581;42.662;23.402;2022-11-14T14:39:22;96055.75;;;10.68;88.47
13029;BME280;6581;42.662;23.402;2022-11-14T14:42:10;96053.00;;;10.64;89.15
13029;BME280;6581;42.662;23.402;2022-11-14T14:44:57;96052.16;;;10.60;89.24
13029;BME280;6581;42.662;23.402;2022-11-14T14:47:58;96044.34;;;10.52;90.08
13029;BME280;6581;42.662;23.402;2022-11-14T14:50:48;96044.28;;;10.48;90.56
13029;BME280;6581;42.662;23.402;2022-11-14T14:53:34;96039.53;;;10.42;90.41
13029;BME280;6581;42.662;23.402;2022-11-14T14:56:23;96036.25;;;10.33;91.38
13029;BME280;6581;42.662;23.402;2022-11-14T14:59:16;96034.63;;;10.28;92.09
13029;BME280;6581;42.662;23.402;2022-11-14T15:02:02;96044.00;;;10.13;92.27
13029;BME280;6581;42.662;23.402;2022-11-14T15:04:48;96045.88;;;10.13;92.80
13029;BME280;6581;42.662;23.402;2022-11-14T15:07:37;96037.84;;;10.09;92.95
13029;BME280;6581;42.662;23.402;2022-11-14T15:10:26;96045.84;;;9.97;93.56